(°C)
27°
29°
31°
32°
33°
33°
33°
(°C)
27°
29°
30°
31°
33°
34°
34°
L
S
O
O
ONO
NO
NO
(km/h)
6-7
6-12
9-19
12-24
11-24
13-25
12-27
(mm)
0
0
0
0
0
0
0
(%)
0
0
0
0
0
0
0

Elevação do sol

/ 26.8°
sun-icon
UV 7
05:40
20:30
Minguante gibosa (235°)
23:08
10:19

METAR para 44.1°N 15.3°L (LDZD)

Hora Condições Temperatura/
Ponto de condensação
Vento Visibilidade Tempo Nuvens Pressão Mudança Bruto
VFR 26°C / 14°C variable 2kt >10km - Few Clouds 6000ft 1015 Becoming: Wind 130º 6kt. LDZD 280600Z VRB02KT 9999 FEW060 26/14 Q1015 BECMG 13006KT
VFR 25°C / 15°C 100º 5kt >10km - Few Clouds 6000ft 1015 No Significant change LDZD 280530Z 10005KT 9999 FEW060 25/15 Q1015 NOSIG
VFR 21°C / 17°C 110º 4kt >10km - Few Clouds 6000ft 1015 No Significant change LDZD 280500Z 11004KT 9999 FEW060 21/17 Q1015 NOSIG
VFR 19°C / 15°C 90º 3kt >10km - Few Clouds 6000ft 1014 No Significant change LDZD 280430Z 09003KT 9999 FEW060 19/15 Q1014 NOSIG
VFR 19°C / 15°C 90º 3kt >10km - Few Clouds 6000ft 1015 No Significant change LDZD 280400Z 09003KT 9999 FEW060 19/15 Q1015 NOSIG
VFR 19°C / 15°C variable 1kt >10km - Few Clouds 6000ft 1015 No Significant change LDZD 280330Z VRB01KT 9999 FEW060 19/15 Q1015 NOSIG
VFR 20°C / 16°C variable 1kt >10km - Clouds and Visibility OK 1015 No Significant change LDZD 280300Z VRB01KT CAVOK 20/16 Q1015 NOSIG
VFR 20°C / 16°C variable 2kt >10km - Clouds and Visibility OK 1015 No Significant change LDZD 280230Z VRB02KT CAVOK 20/16 Q1015 NOSIG
VFR 21°C / 16°C 150º 3kt >10km - Clouds and Visibility OK 1015 No Significant change LDZD 280200Z 15003KT CAVOK 21/16 Q1015 NOSIG
VFR 20°C / 17°C 110º 4kt >10km - Clouds and Visibility OK 1015 - LDZD 280130Z 11004KT CAVOK 20/17 Q1015
VFR 22°C / 16°C 90º 6kt >10km - Clouds and Visibility OK 1015 - LDZD 280100Z 09006KT CAVOK 22/16 Q1015
VFR 22°C / 17°C 60º 5kt >10km - Clouds and Visibility OK 1015 - LDZD 280030Z 06005KT CAVOK 22/17 Q1015
VFR 20°C / 18°C 30º variable 320º to 060º 4kt >10km - Clouds and Visibility OK 1016 - LDZD 280000Z 03004KT 320V060 CAVOK 20/18 Q1016
VFR 21°C / 18°C variable 1kt >10km - Clouds and Visibility OK 1016 - LDZD 272330Z VRB01KT CAVOK 21/18 Q1016
VFR 22°C / 21°C 80º 4kt >10km - Clouds and Visibility OK 1016 - LDZD 272300Z 08004KT CAVOK 22/21 Q1016
VFR 22°C / 21°C variable 2kt >10km - Clouds and Visibility OK 1016 - LDZD 272230Z VRB02KT CAVOK 22/21 Q1016
VFR 21°C / 20°C 110º 3kt >10km - Clouds and Visibility OK 1016 No Significant change LDZD 272200Z 11003KT CAVOK 21/20 Q1016 NOSIG
VFR 22°C / 21°C 110º 4kt >10km - Clouds and Visibility OK 1016 No Significant change LDZD 272130Z 11004KT CAVOK 22/21 Q1016 NOSIG
VFR 22°C / 21°C 140º 4kt >10km - Clouds and Visibility OK 1016 No Significant change LDZD 272100Z 14004KT CAVOK 22/21 Q1016 NOSIG
VFR 23°C / 21°C 80º 2kt >10km - Clouds and Visibility OK 1016 No Significant change LDZD 272030Z 08002KT CAVOK 23/21 Q1016 NOSIG
VFR 24°C / 21°C 110º 4kt >10km - Clouds and Visibility OK 1016 No Significant change LDZD 272000Z 11004KT CAVOK 24/21 Q1016 NOSIG
VFR 25°C / 21°C 140º 4kt >10km - Clouds and Visibility OK 1016 No Significant change LDZD 271930Z 14004KT CAVOK 25/21 Q1016 NOSIG
VFR 26°C / 21°C 120º variable 080º to 140º 4kt >10km - Clouds and Visibility OK 1015 No Significant change LDZD 271900Z 12004KT 080V140 CAVOK 26/21 Q1015 NOSIG
VFR 27°C / 20°C 130º 6kt >10km - Few Clouds 7000ft 1015 Becoming: Wind variable 2kt. LDZD 271830Z 13006KT 9999 FEW070 27/20 Q1015 BECMG VRB02KT

VFR

26°C / 14°C

[Mais]
Vento variable 2kt
Visibilidade >10km
Tempo -
Nuvens Few Clouds 6000ft
Pressão 1015
Mudança Becoming: Wind 130º 6kt.
Bruto LDZD 280600Z VRB02KT 9999 FEW060 26/14 Q1015 BECMG 13006KT

VFR

25°C / 15°C

[Mais]
Vento 100º 5kt
Visibilidade >10km
Tempo -
Nuvens Few Clouds 6000ft
Pressão 1015
Mudança No Significant change
Bruto LDZD 280530Z 10005KT 9999 FEW060 25/15 Q1015 NOSIG

VFR

21°C / 17°C

[Mais]
Vento 110º 4kt
Visibilidade >10km
Tempo -
Nuvens Few Clouds 6000ft
Pressão 1015
Mudança No Significant change
Bruto LDZD 280500Z 11004KT 9999 FEW060 21/17 Q1015 NOSIG

VFR

19°C / 15°C

[Mais]
Vento 90º 3kt
Visibilidade >10km
Tempo -
Nuvens Few Clouds 6000ft
Pressão 1014
Mudança No Significant change
Bruto LDZD 280430Z 09003KT 9999 FEW060 19/15 Q1014 NOSIG

VFR

19°C / 15°C

[Mais]
Vento 90º 3kt
Visibilidade >10km
Tempo -
Nuvens Few Clouds 6000ft
Pressão 1015
Mudança No Significant change
Bruto LDZD 280400Z 09003KT 9999 FEW060 19/15 Q1015 NOSIG

VFR

19°C / 15°C

[Mais]
Vento variable 1kt
Visibilidade >10km
Tempo -
Nuvens Few Clouds 6000ft
Pressão 1015
Mudança No Significant change
Bruto LDZD 280330Z VRB01KT 9999 FEW060 19/15 Q1015 NOSIG

VFR

20°C / 16°C

[Mais]
Vento variable 1kt
Visibilidade >10km
Tempo -
Nuvens Clouds and Visibility OK
Pressão 1015
Mudança No Significant change
Bruto LDZD 280300Z VRB01KT CAVOK 20/16 Q1015 NOSIG

VFR

20°C / 16°C

[Mais]
Vento variable 2kt
Visibilidade >10km
Tempo -
Nuvens Clouds and Visibility OK
Pressão 1015
Mudança No Significant change
Bruto LDZD 280230Z VRB02KT CAVOK 20/16 Q1015 NOSIG

VFR

21°C / 16°C

[Mais]
Vento 150º 3kt
Visibilidade >10km
Tempo -
Nuvens Clouds and Visibility OK
Pressão 1015
Mudança No Significant change
Bruto LDZD 280200Z 15003KT CAVOK 21/16 Q1015 NOSIG

VFR

20°C / 17°C

[Mais]
Vento 110º 4kt
Visibilidade >10km
Tempo -
Nuvens Clouds and Visibility OK
Pressão 1015
Mudança -
Bruto LDZD 280130Z 11004KT CAVOK 20/17 Q1015

VFR

22°C / 16°C

[Mais]
Vento 90º 6kt
Visibilidade >10km
Tempo -
Nuvens Clouds and Visibility OK
Pressão 1015
Mudança -
Bruto LDZD 280100Z 09006KT CAVOK 22/16 Q1015

VFR

22°C / 17°C

[Mais]
Vento 60º 5kt
Visibilidade >10km
Tempo -
Nuvens Clouds and Visibility OK
Pressão 1015
Mudança -
Bruto LDZD 280030Z 06005KT CAVOK 22/17 Q1015

VFR

20°C / 18°C

[Mais]
Vento 30º variable 320º to 060º 4kt
Visibilidade >10km
Tempo -
Nuvens Clouds and Visibility OK
Pressão 1016
Mudança -
Bruto LDZD 280000Z 03004KT 320V060 CAVOK 20/18 Q1016

VFR

21°C / 18°C

[Mais]
Vento variable 1kt
Visibilidade >10km
Tempo -
Nuvens Clouds and Visibility OK
Pressão 1016
Mudança -
Bruto LDZD 272330Z VRB01KT CAVOK 21/18 Q1016

VFR

22°C / 21°C

[Mais]
Vento 80º 4kt
Visibilidade >10km
Tempo -
Nuvens Clouds and Visibility OK
Pressão 1016
Mudança -
Bruto LDZD 272300Z 08004KT CAVOK 22/21 Q1016

VFR

22°C / 21°C

[Mais]
Vento variable 2kt
Visibilidade >10km
Tempo -
Nuvens Clouds and Visibility OK
Pressão 1016
Mudança -
Bruto LDZD 272230Z VRB02KT CAVOK 22/21 Q1016

VFR

21°C / 20°C

[Mais]
Vento 110º 3kt
Visibilidade >10km
Tempo -
Nuvens Clouds and Visibility OK
Pressão 1016
Mudança No Significant change
Bruto LDZD 272200Z 11003KT CAVOK 21/20 Q1016 NOSIG

VFR

22°C / 21°C

[Mais]
Vento 110º 4kt
Visibilidade >10km
Tempo -
Nuvens Clouds and Visibility OK
Pressão 1016
Mudança No Significant change
Bruto LDZD 272130Z 11004KT CAVOK 22/21 Q1016 NOSIG

VFR

22°C / 21°C

[Mais]
Vento 140º 4kt
Visibilidade >10km
Tempo -
Nuvens Clouds and Visibility OK
Pressão 1016
Mudança No Significant change
Bruto LDZD 272100Z 14004KT CAVOK 22/21 Q1016 NOSIG

VFR

23°C / 21°C

[Mais]
Vento 80º 2kt
Visibilidade >10km
Tempo -
Nuvens Clouds and Visibility OK
Pressão 1016
Mudança No Significant change
Bruto LDZD 272030Z 08002KT CAVOK 23/21 Q1016 NOSIG

VFR

24°C / 21°C

[Mais]
Vento 110º 4kt
Visibilidade >10km
Tempo -
Nuvens Clouds and Visibility OK
Pressão 1016
Mudança No Significant change
Bruto LDZD 272000Z 11004KT CAVOK 24/21 Q1016 NOSIG

VFR

25°C / 21°C

[Mais]
Vento 140º 4kt
Visibilidade >10km
Tempo -
Nuvens Clouds and Visibility OK
Pressão 1016
Mudança No Significant change
Bruto LDZD 271930Z 14004KT CAVOK 25/21 Q1016 NOSIG

VFR

26°C / 21°C

[Mais]
Vento 120º variable 080º to 140º 4kt
Visibilidade >10km
Tempo -
Nuvens Clouds and Visibility OK
Pressão 1015
Mudança No Significant change
Bruto LDZD 271900Z 12004KT 080V140 CAVOK 26/21 Q1015 NOSIG

VFR

27°C / 20°C

[Mais]
Vento 130º 6kt
Visibilidade >10km
Tempo -
Nuvens Few Clouds 7000ft
Pressão 1015
Mudança Becoming: Wind variable 2kt.
Bruto LDZD 271830Z 13006KT 9999 FEW070 27/20 Q1015 BECMG VRB02KT

TAF para 44.1°N 15.3°L (LDZD)

From till


Maximum Temperature 34ºC on . Minimum Temperature 19ºC on .
From till Wind 140º 6kt. Visibility 10km or more. Nil Significant Cloud.
Temporarly from till Wind 230º 8kt.
Becoming from till Wind variable 2kt. Visibility 10km or more. Nil Significant Cloud.

Bruto: TAF LDZD 280525Z 2806/2906 14006KT CAVOK TX34/2813Z TN19/2903Z TEMPO 2811/2816 23008KT BECMG 2820/2822 VRB02KT

Imagens atuais de satélite e precipitação para 44.1°N 15.3°L

O marcador de lugar é colocado em 44.1°N 15.3°L. [Mais]

A imagem de satélite em tempo real combina luz visível durante o dia com radiação infravermelha durante a noite. À noite, a imagem não é escura, pois a radiação infravermelha pode detectar diferenças de temperatura. Infelizmente, nuvens baixas e neblina são difíceis de distinguir das temperaturas do solo e, portanto, podem ser quase invisíveis durante a noite. As imagens de satélite Meteosat para a Europa são atualizadas em tempo real a cada 5 minutos. GOES-16/GOES-17 ( América do Norte e do Sul) e Himawari (Ásia) são atualizadas a cada 10 minutos.

A precipitação é estimada por radares e satélites. A estimativa da precipitação noturna por satélites é menos precisa do que durante o dia. Cruzes laranjas identificam lugares onde relâmpagos foram detetados (em Europa).

Copyright 2021 EUMETSAT / meteoblue. Dados de relâmpagos fornecidos por nowcast.

Radar e precipitação nowcast para 44.1°N 15.3°L

Chuvisco
Leve
Moderado
Forte
Muito forte
Granizo

O marcador do lugar é colocado em 44.1°N 15.3°L. Esta animação mostra o radar de precipitação para a última hora, assim como a 1h previsão. Chuviscos ou leve queda de neve podem ser invisíveis para o radar. Intensidade da precipitação é codificada por cores, que vão desde azul claro ao roxo escuro.